| time (UTC) | temp F | wind direction | speed knots | gust knots | rain 1hr in | rain 24hr in | rain mn in | humidity % | barometer mb |
| 20260509224129 | 89 | 343 | 0.0 | 0.0 | 0.00 | 0.09 | 0.09 | 50 | 1007.0 |
| 20260509223626 | 90 | 120 | 0.0 | 1.7 | 0.00 | 0.09 | 0.09 | 47 | 1006.9 |
| 20260509223124 | 90 | 154 | 0.0 | 0.9 | 0.00 | 0.09 | 0.09 | 48 | 1006.9 |
| 20260509222620 | 91 | 228 | 1.7 | 1.7 | 0.00 | 0.09 | 0.09 | 49 | 1006.8 |
| 20260509222116 | 91 | 0 | 0.0 | 0.0 | 0.00 | 0.09 | 0.09 | 47 | 1006.6 |
| 20260509221612 | 91 | 205 | 0.0 | 0.0 | 0.00 | 0.09 | 0.09 | 47 | 1006.9 |
| 20260509221108 | 92 | 240 | 0.0 | 1.7 | 0.00 | 0.09 | 0.09 | 45 | 1006.9 |
| 20260509220604 | 90 | 229 | 0.0 | 1.7 | 0.00 | 0.09 | 0.09 | 48 | 1006.6 |
| 20260509220100 | 90 | 315 | 0.0 | 0.9 | 0.00 | 0.09 | 0.09 | 48 | 1006.9 |
| 20260509215555 | 90 | 6 | 1.7 | 1.7 | 0.00 | 0.09 | 0.09 | 49 | 1007.0 |
| 20260509215053 | 90 | 64 | 0.0 | 0.9 | 0.00 | 0.09 | 0.09 | 49 | 1007.1 |
| 20260509214550 | 90 | 154 | 0.9 | 2.6 | 0.00 | 0.09 | 0.09 | 47 | 1006.8 |
| 20260509214047 | 91 | 153 | 0.9 | 1.7 | 0.00 | 0.09 | 0.09 | 46 | 1007.2 |
| 20260509213543 | 91 | 322 | 0.0 | 0.0 | 0.00 | 0.09 | 0.09 | 51 | 1007.0 |
| 20260509213040 | 91 | 127 | 1.7 | 1.7 | 0.00 | 0.09 | 0.09 | 46 | 1007.2 |
| 20260509212537 | 90 | 142 | 0.0 | 1.7 | 0.00 | 0.09 | 0.09 | 48 | 1007.3 |
| 20260509212034 | 90 | 333 | 0.0 | 0.0 | 0.00 | 0.09 | 0.09 | 51 | 1007.4 |
| 20260509211530 | 89 | 310 | 0.0 | 1.7 | 0.00 | 0.09 | 0.09 | 51 | 1007.5 |
| 20260509211027 | 89 | 205 | 0.0 | 1.7 | 0.00 | 0.09 | 0.09 | 49 | 1007.5 |
| 20260509210524 | 88 | 125 | 1.7 | 2.6 | 0.00 | 0.09 | 0.09 | 51 | 1007.8 |
| 20260509210020 | 88 | 231 | 0.0 | 2.6 | 0.00 | 0.09 | 0.09 | 52 | 1007.6 |
| 20260509205514 | 89 | 202 | 2.6 | 3.5 | 0.00 | 0.09 | 0.09 | 49 | 1007.7 |
| 20260509205010 | 90 | 170 | 0.9 | 2.6 | 0.00 | 0.09 | 0.09 | 51 | 1007.7 |
| 20260509204506 | 90 | 157 | 0.0 | 1.7 | 0.00 | 0.09 | 0.09 | 48 | 1007.9 |
| 20260509204003 | 90 | 174 | 0.0 | 2.6 | 0.00 | 0.09 | 0.09 | 48 | 1008.0 |
| 20260509203459 | 89 | 326 | 0.0 | 0.9 | 0.00 | 0.09 | 0.09 | 50 | 1007.9 |
| 20260509202956 | 88 | 159 | 0.9 | 1.7 | 0.00 | 0.09 | 0.09 | 54 | 1008.1 |
| 20260509202452 | 89 | 133 | 2.6 | 3.5 | 0.00 | 0.09 | 0.09 | 54 | 1008.2 |
| 20260509201947 | 89 | 84 | 0.0 | 1.7 | 0.00 | 0.09 | 0.09 | 55 | 1008.2 |
| 20260509201443 | 88 | 108 | 0.0 | 1.7 | 0.00 | 0.09 | 0.09 | 54 | 1008.4 |
| 20260509200940 | 88 | 236 | 0.9 | 3.5 | 0.00 | 0.09 | 0.09 | 54 | 1008.7 |
| 20260509200440 | 88 | 25 | 0.0 | 1.7 | 0.00 | 0.09 | 0.09 | 59 | 1008.7 |
| 20260509195937 | 88 | 97 | 0.0 | 0.9 | 0.00 | 0.09 | 0.09 | 56 | 1008.7 |
| 20260509195433 | 87 | 226 | 0.9 | 1.7 | 0.00 | 0.09 | 0.09 | 54 | 1008.8 |
| 20260509194932 | 87 | 50 | 0.0 | 1.7 | 0.00 | 0.09 | 0.09 | 55 | 1008.7 |
| 20260509194428 | 87 | 196 | 0.0 | 0.9 | 0.00 | 0.09 | 0.09 | 59 | 1008.9 |
| 20260509193925 | 87 | 268 | 0.9 | 1.7 | 0.00 | 0.09 | 0.09 | 60 | 1008.9 |
| 20260509193425 | 86 | 216 | 2.6 | 4.3 | 0.00 | 0.09 | 0.09 | 58 | 1008.8 |
| 20260509192921 | 86 | 205 | 0.0 | 1.7 | 0.00 | 0.09 | 0.09 | 58 | 1008.8 |
| 20260509192417 | 85 | 15 | 0.0 | 0.9 | 0.00 | 0.09 | 0.09 | 61 | 1008.8 |
| 20260509191913 | 85 | 308 | 0.0 | 1.7 | 0.00 | 0.09 | 0.09 | 59 | 1008.8 |
| 20260509191408 | 84 | 6 | 0.9 | 1.7 | 0.00 | 0.09 | 0.09 | 64 | 1009.0 |
| 20260509190905 | 84 | 56 | 0.9 | 1.7 | 0.00 | 0.09 | 0.09 | 60 | 1009.1 |
| 20260509190402 | 84 | 319 | 0.9 | 1.7 | 0.00 | 0.09 | 0.09 | 70 | 1009.1 |
| 20260509185859 | 83 | 355 | 0.0 | 1.7 | 0.00 | 0.09 | 0.09 | 73 | 1009.3 |
| 20260509185356 | 83 | 333 | 0.0 | 1.7 | 0.00 | 0.09 | 0.09 | 72 | 1009.3 |
| 20260509184853 | 83 | 336 | 0.9 | 1.7 | 0.00 | 0.09 | 0.09 | 76 | 1009.3 |
| 20260509184350 | 82 | 89 | 0.0 | 1.7 | 0.00 | 0.09 | 0.09 | 78 | 1009.6 |
| 20260509183846 | 81 | 343 | 0.0 | 1.7 | 0.00 | 0.09 | 0.09 | 82 | 1009.6 |
| 20260509183342 | 80 | 66 | 0.0 | 0.0 | 0.00 | 0.09 | 0.09 | 84 | 1009.7 |
| 20260509182838 | 79 | 255 | 0.0 | 0.0 | 0.00 | 0.09 | 0.09 | 83 | 1009.8 |
| 20260509182335 | 79 | 235 | 0.0 | 0.0 | 0.00 | 0.09 | 0.09 | 85 | 1009.8 |
| 20260509181832 | 79 | 117 | 0.0 | 0.9 | 0.00 | 0.09 | 0.09 | 86 | 1009.6 |
| 20260509181329 | 78 | 212 | 0.0 | 0.0 | 0.00 | 0.09 | 0.09 | 87 | 1009.9 |
| 20260509180827 | 79 | 212 | 0.0 | 0.0 | 0.00 | 0.09 | 0.09 | 87 | 1009.9 |
| 20260509180323 | 79 | 212 | 0.0 | 0.0 | 0.00 | 0.09 | 0.09 | 87 | 1010.0 |
| 20260509175819 | 78 | 212 | 0.0 | 0.0 | 0.00 | 0.09 | 0.09 | 87 | 1010.2 |
| 20260509175316 | 79 | 25 | 0.0 | 0.9 | 0.00 | 0.09 | 0.09 | 87 | 1010.2 |
| 20260509174812 | 79 | 82 | 0.9 | 0.9 | 0.00 | 0.09 | 0.09 | 87 | 1010.1 |
| 20260509174308 | 79 | 44 | 0.0 | 0.0 | 0.00 | 0.09 | 0.09 | 90 | 1010.0 |
| 20260509173804 | 78 | 44 | 0.0 | 0.9 | 0.00 | 0.09 | 0.09 | 91 | 1010.1 |
| 20260509173259 | 78 | 75 | 0.0 | 0.0 | 0.00 | 0.09 | 0.09 | 91 | 1010.2 |
| 20260509172755 | 77 | 75 | 0.0 | 0.0 | 0.00 | 0.09 | 0.09 | 92 | 1010.1 |
| 20260509172253 | 77 | 75 | 0.0 | 0.0 | 0.00 | 0.09 | 0.09 | 92 | 1010.3 |
| 20260509171748 | 77 | 63 | 0.9 | 1.7 | 0.02 | 0.09 | 0.09 | 92 | 1010.2 |
| 20260509171244 | 77 | 310 | 0.0 | 0.9 | 0.09 | 0.09 | 0.09 | 92 | 1010.5 |
| 20260509170741 | 77 | 240 | 0.0 | 0.0 | 0.12 | 0.08 | 0.08 | 92 | 1010.5 |
| 20260509170237 | 77 | 76 | 0.0 | 0.0 | 0.07 | 0.07 | 0.07 | 91 | 1010.7 |
| 20260509165736 | 77 | 21 | 0.0 | 0.0 | 0.31 | 0.06 | 0.06 | 87 | 1010.5 |
| 20260509165231 | 78 | 130 | 0.0 | 1.7 | 0.33 | 0.06 | 0.06 | 85 | 1010.5 |
| 20260509164727 | 80 | 222 | 0.9 | 1.7 | 0.02 | 0.00 | 0.00 | 80 | 1010.5 |
| 20260509164223 | 80 | 205 | 0.9 | 2.6 | 0.00 | 0.00 | 0.00 | 77 | 1010.3 |
| 20260509163721 | 81 | 117 | 1.7 | 4.3 | 0.00 | 0.00 | 0.00 | 77 | 1010.2 |
| 20260509163217 | 81 | 146 | 2.6 | 5.2 | 0.00 | 0.00 | 0.00 | 77 | 1010.2 |
| 20260509162715 | 80 | 187 | 1.7 | 3.5 | 0.00 | 0.00 | 0.00 | 79 | 1010.3 |
| 20260509162210 | 80 | 165 | 1.7 | 3.5 | 0.00 | 0.00 | 0.00 | 77 | 1010.4 |
| 20260509161706 | 80 | 151 | 3.5 | 4.3 | 0.00 | 0.00 | 0.00 | 77 | 1010.4 |
| 20260509161202 | 80 | 126 | 0.9 | 2.6 | 0.00 | 0.00 | 0.00 | 77 | 1010.2 |
| 20260509160657 | 80 | 88 | 0.9 | 3.5 | 0.00 | 0.00 | 0.00 | 76 | 1010.1 |
| 20260509160153 | 81 | 122 | 0.9 | 3.5 | 0.00 | 0.00 | 0.00 | 76 | 1010.2 |
| 20260509155649 | 82 | 102 | 0.9 | 2.6 | 0.00 | 0.00 | 0.00 | 75 | 1010.2 |
| 20260509155146 | 82 | 127 | 1.7 | 2.6 | 0.00 | 0.00 | 0.00 | 74 | 1009.9 |
| 20260509154641 | 82 | 127 | 0.0 | 1.7 | 0.00 | 0.00 | 0.00 | 75 | 1010.2 |
| 20260509154138 | 82 | 104 | 0.0 | 0.9 | 0.00 | 0.00 | 0.00 | 74 | 1010.0 |
| 20260509153636 | 82 | 121 | 0.9 | 1.7 | 0.00 | 0.00 | 0.00 | 72 | 1009.9 |
| 20260509153132 | 83 | 217 | 0.0 | 0.9 | 0.00 | 0.00 | 0.00 | 70 | 1009.7 |
| 20260509152628 | 84 | 135 | 0.0 | 1.7 | 0.00 | 0.00 | 0.00 | 70 | 1009.6 |
| 20260509152126 | 84 | 284 | 0.9 | 1.7 | 0.00 | 0.00 | 0.00 | 69 | 1009.7 |
| 20260509151622 | 83 | 196 | 0.9 | 1.7 | 0.00 | 0.00 | 0.00 | 72 | 1009.5 |
| 20260509151120 | 82 | 116 | 0.0 | 1.7 | 0.00 | 0.00 | 0.00 | 75 | 1009.5 |
| 20260509150617 | 81 | 225 | 0.9 | 5.2 | 0.00 | 0.00 | 0.00 | 75 | 1009.6 |
| 20260509150115 | 82 | 212 | 0.0 | 4.3 | 0.00 | 0.00 | 0.00 | 74 | 1009.4 |
| 20260509145611 | 81 | 200 | 1.7 | 2.6 | 0.00 | 0.00 | 0.00 | 77 | 1009.4 |
| 20260509145106 | 81 | 163 | 0.0 | 2.6 | 0.00 | 0.00 | 0.00 | 77 | 1009.1 |
| 20260509144603 | 80 | 156 | 1.7 | 4.3 | 0.00 | 0.00 | 0.00 | 78 | 1009.2 |
| 20260509144100 | 80 | 160 | 3.5 | 4.3 | 0.00 | 0.00 | 0.00 | 78 | 1009.0 |
| 20260509143557 | 79 | 152 | 2.6 | 3.5 | 0.00 | 0.00 | 0.00 | 78 | 1009.0 |
| 20260509143055 | 79 | 192 | 1.7 | 3.5 | 0.00 | 0.00 | 0.00 | 79 | 1009.1 |
| 20260509142550 | 79 | 179 | 0.9 | 2.6 | 0.00 | 0.00 | 0.00 | 81 | 1008.9 |
| 20260509142046 | 78 | 166 | 2.6 | 4.3 | 0.00 | 0.00 | 0.00 | 80 | 1008.8 |
| 20260509141543 | 78 | 208 | 1.7 | 2.6 | 0.00 | 0.00 | 0.00 | 83 | 1009.0 |
| 20260509141040 | 77 | 217 | 0.9 | 2.6 | 0.00 | 0.00 | 0.00 | 84 | 1008.8 |
| 20260509140536 | 77 | 210 | 1.7 | 3.5 | 0.00 | 0.00 | 0.00 | 85 | 1008.8 |
| 20260509140035 | 76 | 213 | 2.6 | 4.3 | 0.00 | 0.00 | 0.00 | 86 | 1008.9 |
| 20260509135531 | 76 | 199 | 2.6 | 3.5 | 0.00 | 0.00 | 0.00 | 88 | 1009.0 |
| 20260509135029 | 75 | 135 | 1.7 | 3.5 | 0.00 | 0.00 | 0.00 | 88 | 1009.0 |
| 20260509134526 | 75 | 146 | 1.7 | 9.6 | 0.00 | 0.00 | 0.00 | 89 | 1008.8 |
| 20260509134024 | 75 | 136 | 1.7 | 4.3 | 0.00 | 0.00 | 0.00 | 90 | 1009.1 |
| 20260509133520 | 74 | 135 | 3.5 | 3.5 | 0.00 | 0.00 | 0.00 | 91 | 1008.8 |
| 20260509133018 | 74 | 135 | 0.9 | 5.2 | 0.00 | 0.00 | 0.00 | 92 | 1008.6 |
| 20260509132516 | 73 | 156 | 2.6 | 4.3 | 0.00 | 0.00 | 0.00 | 95 | 1009.0 |
| 20260509132014 | 73 | 144 | 3.5 | 3.5 | 0.00 | 0.00 | 0.00 | 96 | 1008.8 |
| 20260509131510 | 72 | 132 | 0.9 | 1.7 | 0.00 | 0.00 | 0.00 | 97 | 1008.8 |
| 20260509131007 | 72 | 111 | 1.7 | 2.6 | 0.00 | 0.00 | 0.00 | 97 | 1008.6 |
| 20260509130502 | 71 | 133 | 1.7 | 2.6 | 0.00 | 0.00 | 0.00 | 97 | 1008.8 |
| 20260509125959 | 71 | 85 | 0.9 | 1.7 | 0.00 | 0.00 | 0.00 | 97 | 1008.7 |
| 20260509125455 | 71 | 22 | 1.7 | 1.7 | 0.00 | 0.00 | 0.00 | 97 | 1008.7 |
| 20260509124951 | 71 | 66 | 0.0 | 1.7 | 0.00 | 0.00 | 0.00 | 97 | 1008.8 |
| 20260509124449 | 71 | 114 | 2.6 | 2.6 | 0.00 | 0.00 | 0.00 | 97 | 1009.0 |
| 20260509123946 | 71 | 128 | 0.0 | 1.7 | 0.00 | 0.00 | 0.00 | 97 | 1009.2 |
| 20260509123444 | 71 | 160 | 1.7 | 2.6 | 0.00 | 0.00 | 0.00 | 97 | 1008.8 |
| 20260509122939 | 71 | 219 | 1.7 | 1.7 | 0.00 | 0.00 | 0.00 | 97 | 1009.2 |
| 20260509122436 | 71 | 152 | 0.9 | 1.7 | 0.00 | 0.00 | 0.00 | 97 | 1009.2 |
| 20260509121933 | 71 | 232 | 0.9 | 1.7 | 0.00 | 0.00 | 0.00 | 97 | 1009.3 |
| 20260509121430 | 71 | 159 | 0.9 | 2.6 | 0.00 | 0.00 | 0.00 | 97 | 1009.4 |
| 20260509120928 | 71 | 135 | 0.0 | 1.7 | 0.00 | 0.00 | 0.00 | 97 | 1009.5 |
| 20260509120426 | 71 | 134 | 0.9 | 1.7 | 0.00 | 0.00 | 0.00 | 96 | 1009.3 |
| 20260509115924 | 71 | 157 | 1.7 | 1.7 | 0.00 | 0.00 | 0.00 | 96 | 1009.3 |
| 20260509115421 | 71 | 114 | 0.0 | 1.7 | 0.00 | 0.00 | 0.00 | 96 | 1009.7 |
| 20260509114918 | 71 | 19 | 0.0 | 1.7 | 0.00 | 0.00 | 0.00 | 96 | 1009.8 |
| 20260509114416 | 71 | 120 | 0.9 | 2.6 | 0.00 | 0.00 | 0.00 | 96 | 1009.9 |
| 20260509113916 | 71 | 62 | 0.9 | 1.7 | 0.00 | 0.00 | 0.00 | 96 | 1010.2 |
| 20260509113413 | 71 | 325 | 0.0 | 1.7 | 0.00 | 0.00 | 0.00 | 96 | 1010.0 |
| 20260509112909 | 71 | 105 | 1.7 | 1.7 | 0.00 | 0.00 | 0.00 | 96 | 1010.3 |
| 20260509112407 | 71 | 112 | 0.0 | 1.7 | 0.00 | 0.00 | 0.00 | 96 | 1010.2 |
| 20260509111903 | 71 | 51 | 0.0 | 1.7 | 0.00 | 0.00 | 0.00 | 96 | 1010.5 |
| 20260509111400 | 71 | 38 | 0.9 | 1.7 | 0.00 | 0.00 | 0.00 | 96 | 1010.3 |
| 20260509110858 | 71 | 223 | 0.0 | 2.6 | 0.00 | 0.00 | 0.00 | 96 | 1010.5 |
| 20260509110354 | 71 | 138 | 2.6 | 3.5 | 0.00 | 0.00 | 0.00 | 96 | 1010.4 |
| 20260509105852 | 71 | 84 | 0.0 | 1.7 | 0.00 | 0.00 | 0.00 | 96 | 1010.6 |
| 20260509105350 | 71 | 129 | 0.0 | 0.9 | 0.00 | 0.00 | 0.00 | 96 | 1010.7 |
| 20260509104847 | 71 | 343 | 0.0 | 0.0 | 0.00 | 0.00 | 0.00 | 96 | 1011.0 |
| 20260509104343 | 71 | 13 | 1.7 | 1.7 | 0.00 | 0.00 | 0.00 | 96 | 1010.6 |
| 20260509103841 | 71 | 95 | 0.0 | 1.7 | 0.00 | 0.00 | 0.00 | 96 | 1011.0 |
| 20260509103338 | 71 | 149 | 0.9 | 1.7 | 0.00 | 0.00 | 0.00 | 96 | 1011.3 |
| 20260509102837 | 71 | 83 | 0.0 | 1.7 | 0.00 | 0.00 | 0.00 | 96 | 1011.1 |
| 20260509102334 | 71 | 29 | 0.0 | 1.7 | 0.00 | 0.00 | 0.00 | 96 | 1010.4 |
| 20260509101829 | 71 | 29 | 0.0 | 0.9 | 0.00 | 0.00 | 0.00 | 96 | 1010.3 |
| 20260509101326 | 71 | 117 | 0.0 | 0.0 | 0.00 | 0.00 | 0.00 | 96 | 1010.4 |
| 20260509100824 | 71 | 118 | 0.0 | 0.0 | 0.00 | 0.00 | 0.00 | 96 | 1010.4 |
| 20260509100321 | 72 | 63 | 0.0 | 0.9 | 0.00 | 0.00 | 0.00 | 96 | 1010.5 |
| 20260509095817 | 72 | 135 | 0.9 | 0.9 | 0.00 | 0.00 | 0.00 | 96 | 1010.1 |
| 20260509095315 | 72 | 62 | 0.0 | 0.0 | 0.00 | 0.00 | 0.00 | 96 | 1010.1 |
| 20260509094812 | 72 | 38 | 0.0 | 1.7 | 0.00 | 0.00 | 0.00 | 96 | 1009.9 |
| 20260509094308 | 72 | 131 | 0.0 | 0.9 | 0.00 | 0.00 | 0.00 | 96 | 1010.2 |
| 20260509093806 | 71 | 50 | 0.0 | 0.0 | 0.00 | 0.00 | 0.00 | 95 | 1010.0 |
| 20260509093303 | 71 | 32 | 0.0 | 0.9 | 0.00 | 0.00 | 0.00 | 95 | 1009.7 |
| 20260509092801 | 71 | 58 | 0.0 | 0.0 | 0.00 | 0.00 | 0.00 | 95 | 1009.5 |
| 20260509092259 | 71 | 89 | 0.0 | 0.0 | 0.00 | 0.00 | 0.00 | 95 | 1009.4 |
| 20260509091757 | 71 | 115 | 0.9 | 0.9 | 0.00 | 0.00 | 0.00 | 95 | 1009.0 |
| 20260509091253 | 71 | 28 | 0.0 | 0.9 | 0.00 | 0.00 | 0.00 | 95 | 1009.1 |
| 20260509090751 | 71 | 58 | 0.0 | 0.9 | 0.00 | 0.00 | 0.00 | 95 | 1008.9 |
| 20260509090247 | 71 | 50 | 0.0 | 0.9 | 0.00 | 0.00 | 0.00 | 95 | 1009.2 |
| 20260509085745 | 72 | 147 | 0.0 | 0.9 | 0.00 | 0.00 | 0.00 | 95 | 1009.0 |
| 20260509085243 | 72 | 137 | 0.0 | 0.9 | 0.00 | 0.00 | 0.00 | 95 | 1009.1 |
| 20260509084739 | 72 | 132 | 0.0 | 1.7 | 0.00 | 0.00 | 0.00 | 95 | 1009.2 |
| 20260509084235 | 72 | 94 | 0.0 | 1.7 | 0.00 | 0.00 | 0.00 | 95 | 1009.5 |
| 20260509083734 | 72 | 121 | 0.9 | 1.7 | 0.00 | 0.00 | 0.00 | 94 | 1009.4 |
| 20260509083230 | 72 | 127 | 0.9 | 1.7 | 0.00 | 0.00 | 0.00 | 94 | 1009.6 |
| 20260509082727 | 72 | 49 | 0.0 | 0.0 | 0.00 | 0.00 | 0.00 | 94 | 1009.4 |
| 20260509082223 | 72 | 113 | 0.0 | 0.9 | 0.00 | 0.00 | 0.00 | 94 | 1009.7 |
| 20260509081720 | 72 | 124 | 0.0 | 0.9 | 0.00 | 0.00 | 0.00 | 94 | 1009.6 |
| 20260509081218 | 72 | 119 | 0.9 | 1.7 | 0.00 | 0.00 | 0.00 | 94 | 1009.5 |
| 20260509080716 | 72 | 118 | 0.9 | 1.7 | 0.00 | 0.00 | 0.00 | 93 | 1009.6 |
| 20260509080213 | 72 | 118 | 0.0 | 1.7 | 0.00 | 0.00 | 0.00 | 93 | 1009.5 |
| 20260509075711 | 72 | 119 | 0.0 | 0.9 | 0.00 | 0.00 | 0.00 | 93 | 1009.6 |
| 20260509075209 | 72 | 122 | 0.9 | 1.7 | 0.00 | 0.00 | 0.00 | 93 | 1009.7 |
| 20260509074705 | 72 | 95 | 0.0 | 0.0 | 0.00 | 0.00 | 0.00 | 93 | 1009.9 |
| 20260509074202 | 72 | 73 | 0.0 | 0.0 | 0.00 | 0.00 | 0.00 | 93 | 1009.9 |
| 20260509073659 | 73 | 96 | 0.9 | 0.9 | 0.00 | 0.00 | 0.00 | 93 | 1010.1 |
| 20260509073155 | 73 | 119 | 0.0 | 0.0 | 0.00 | 0.00 | 0.00 | 92 | 1010.0 |
| 20260509072652 | 73 | 62 | 0.0 | 0.9 | 0.00 | 0.00 | 0.00 | 92 | 1009.8 |
| 20260509072148 | 73 | 120 | 0.0 | 1.7 | 0.00 | 0.00 | 0.00 | 92 | 1010.4 |
| 20260509071645 | 73 | 143 | 0.9 | 2.6 | 0.00 | 0.00 | 0.00 | 92 | 1010.2 |
| 20260509071143 | 73 | 132 | 0.9 | 1.7 | 0.00 | 0.00 | 0.00 | 92 | 1010.1 |
| 20260509070639 | 73 | 95 | 0.0 | 3.5 | 0.00 | 0.00 | 0.00 | 92 | 1010.1 |
| 20260509070136 | 73 | 121 | 1.7 | 2.6 | 0.00 | 0.00 | 0.00 | 92 | 1009.9 |
| 20260509065632 | 73 | 149 | 1.7 | 2.6 | 0.00 | 0.00 | 0.00 | 92 | 1009.5 |
| 20260509065128 | 73 | 160 | 0.9 | 1.7 | 0.00 | 0.00 | 0.00 | 92 | 1009.7 |
| 20260509064625 | 73 | 135 | 1.7 | 2.6 | 0.00 | 0.00 | 0.00 | 92 | 1010.0 |
| 20260509064124 | 73 | 135 | 1.7 | 1.7 | 0.00 | 0.00 | 0.00 | 92 | 1009.7 |
| 20260509063620 | 73 | 142 | 0.9 | 1.7 | 0.00 | 0.00 | 0.00 | 92 | 1009.9 |
| 20260509063116 | 73 | 143 | 1.7 | 1.7 | 0.00 | 0.00 | 0.00 | 91 | 1009.7 |
| 20260509062614 | 73 | 126 | 0.0 | 1.7 | 0.00 | 0.00 | 0.00 | 91 | 1010.2 |
| 20260509062111 | 73 | 133 | 0.0 | 1.7 | 0.00 | 0.00 | 0.00 | 91 | 1010.0 |
| 20260509061607 | 73 | 147 | 0.0 | 1.7 | 0.00 | 0.00 | 0.00 | 91 | 1010.1 |
| 20260509061105 | 73 | 55 | 0.0 | 1.7 | 0.00 | 0.00 | 0.00 | 91 | 1009.9 |
| 20260509060603 | 73 | 112 | 1.7 | 1.7 | 0.00 | 0.00 | 0.00 | 91 | 1009.9 |
| 20260509060058 | 73 | 122 | 0.9 | 0.9 | 0.00 | 0.00 | 0.00 | 91 | 1009.9 |
| 20260509055554 | 73 | 111 | 0.9 | 2.6 | 0.00 | 0.00 | 0.00 | 92 | 1010.2 |
| 20260509055050 | 73 | 114 | 0.0 | 2.6 | 0.00 | 0.00 | 0.00 | 92 | 1010.0 |
| 20260509054547 | 73 | 122 | 1.7 | 1.7 | 0.00 | 0.00 | 0.00 | 92 | 1009.6 |
| 20260509054045 | 72 | 146 | 0.9 | 2.6 | 0.00 | 0.00 | 0.00 | 92 | 1009.2 |
| 20260509053543 | 72 | 68 | 0.0 | 0.9 | 0.00 | 0.00 | 0.00 | 92 | 1009.1 |
| 20260509053039 | 72 | 119 | 0.0 | 1.7 | 0.00 | 0.00 | 0.00 | 92 | 1008.8 |
| 20260509052538 | 72 | 89 | 0.9 | 1.7 | 0.00 | 0.00 | 0.00 | 93 | 1008.6 |
| 20260509052035 | 72 | 89 | 0.0 | 0.9 | 0.00 | 0.00 | 0.00 | 93 | 1008.8 |
| 20260509051533 | 72 | 111 | 0.0 | 0.9 | 0.00 | 0.00 | 0.00 | 93 | 1008.9 |
| 20260509051030 | 72 | 89 | 0.0 | 0.9 | 0.00 | 0.00 | 0.00 | 93 | 1008.7 |
| 20260509050526 | 71 | 130 | 0.0 | 0.0 | 0.00 | 0.00 | 0.00 | 92 | 1008.6 |
| 20260509050023 | 71 | 89 | 0.0 | 0.9 | 0.00 | 0.00 | 0.00 | 92 | 1008.3 |
| 20260509045520 | 71 | 107 | 0.9 | 0.9 | 0.00 | 0.00 | 0.00 | 92 | 1008.5 |
| 20260509045017 | 71 | 139 | 0.0 | 0.9 | 0.00 | 0.00 | 0.00 | 92 | 1008.4 |
| 20260509044515 | 71 | 122 | 0.9 | 1.7 | 0.00 | 0.00 | 0.00 | 93 | 1008.7 |
| 20260509044012 | 71 | 129 | 0.9 | 1.7 | 0.00 | 0.00 | 0.00 | 93 | 1008.7 |
| 20260509043508 | 71 | 89 | 0.0 | 0.9 | 0.00 | 0.00 | 0.00 | 93 | 1008.9 |
| 20260509043004 | 71 | 55 | 0.0 | 0.9 | 0.00 | 0.00 | 0.00 | 93 | 1008.9 |
| 20260509042500 | 71 | 89 | 0.0 | 0.0 | 0.00 | 0.00 | 0.00 | 93 | 1009.1 |
| 20260509041956 | 71 | 117 | 0.0 | 0.9 | 0.00 | 0.00 | 0.00 | 93 | 1008.9 |
| 20260509041453 | 71 | 116 | 0.0 | 0.9 | 0.00 | 0.00 | 0.00 | 93 | 1009.1 |
| 20260509040951 | 71 | 123 | 0.0 | 1.7 | 0.00 | 0.00 | 0.00 | 93 | 1009.0 |
| 20260509040449 | 71 | 124 | 0.0 | 0.9 | 0.00 | 0.00 | 0.00 | 93 | 1009.0 |
| 20260509035946 | 70 | 119 | 0.0 | 1.7 | 0.00 | 0.00 | 0.00 | 93 | 1009.1 |
| 20260509035442 | 70 | 111 | 0.9 | 1.7 | 0.00 | 0.00 | 0.00 | 93 | 1009.2 |
| 20260509034939 | 70 | 107 | 0.0 | 0.9 | 0.00 | 0.00 | 0.00 | 93 | 1009.2 |
| 20260509034437 | 70 | 142 | 0.0 | 0.0 | 0.00 | 0.00 | 0.00 | 92 | 1009.2 |
| 20260509033934 | 70 | 107 | 0.0 | 0.9 | 0.00 | 0.00 | 0.00 | 92 | 1008.9 |
| 20260509033431 | 70 | 113 | 0.0 | 0.9 | 0.00 | 0.00 | 0.00 | 92 | 1009.1 |
| 20260509032927 | 71 | 107 | 0.0 | 0.9 | 0.00 | 0.00 | 0.00 | 92 | 1008.9 |
| 20260509032425 | 71 | 62 | 0.0 | 0.0 | 0.00 | 0.00 | 0.00 | 92 | 1008.7 |
| 20260509031923 | 71 | 37 | 0.0 | 0.0 | 0.00 | 0.00 | 0.00 | 92 | 1008.5 |
| 20260509031420 | 71 | 89 | 0.0 | 0.9 | 0.00 | 0.00 | 0.00 | 92 | 1008.7 |
| 20260509030917 | 71 | 134 | 0.0 | 1.7 | 0.00 | 0.00 | 0.00 | 92 | 1008.5 |
| 20260509030415 | 71 | 115 | 0.9 | 1.7 | 0.00 | 0.00 | 0.00 | 92 | 1008.4 |
| 20260509025912 | 71 | 119 | 0.9 | 1.7 | 0.00 | 0.00 | 0.00 | 91 | 1008.5 |
| 20260509025408 | 71 | 129 | 0.0 | 0.9 | 0.00 | 0.00 | 0.00 | 91 | 1008.5 |
| 20260509024903 | 71 | 130 | 0.9 | 1.7 | 0.00 | 0.00 | 0.00 | 91 | 1008.4 |
| 20260509024359 | 71 | 121 | 0.9 | 1.7 | 0.00 | 0.00 | 0.00 | 90 | 1008.2 |
| 20260509023856 | 71 | 120 | 0.9 | 1.7 | 0.00 | 0.00 | 0.00 | 90 | 1008.3 |
| 20260509023354 | 72 | 123 | 0.9 | 1.7 | 0.00 | 0.00 | 0.00 | 90 | 1008.5 |
| 20260509022850 | 72 | 122 | 0.0 | 0.9 | 0.00 | 0.00 | 0.00 | 89 | 1008.3 |
| 20260509022347 | 72 | 117 | 0.0 | 0.9 | 0.00 | 0.00 | 0.00 | 89 | 1008.5 |
| 20260509021844 | 72 | 101 | 0.9 | 0.9 | 0.00 | 0.00 | 0.00 | 88 | 1008.3 |
| 20260509021341 | 73 | 89 | 0.0 | 0.9 | 0.00 | 0.00 | 0.00 | 88 | 1008.2 |
| 20260509020839 | 73 | 89 | 0.0 | 0.0 | 0.00 | 0.00 | 0.00 | 87 | 1008.3 |
| 20260509020337 | 73 | 132 | 0.0 | 0.9 | 0.00 | 0.00 | 0.00 | 87 | 1008.1 |
| 20260509015834 | 73 | 89 | 0.0 | 0.0 | 0.00 | 0.00 | 0.00 | 87 | 1008.1 |
| 20260509015332 | 73 | 95 | 0.0 | 0.9 | 0.00 | 0.00 | 0.00 | 86 | 1007.9 |
| 20260509014828 | 74 | 72 | 0.0 | 0.9 | 0.00 | 0.00 | 0.00 | 86 | 1007.9 |
| 20260509014325 | 74 | 89 | 0.0 | 0.9 | 0.00 | 0.00 | 0.00 | 85 | 1007.8 |
| 20260509013822 | 74 | 117 | 0.0 | 0.9 | 0.00 | 0.00 | 0.00 | 85 | 1007.8 |
| 20260509013319 | 74 | 55 | 0.0 | 0.9 | 0.00 | 0.00 | 0.00 | 84 | 1007.8 |
| 20260509012815 | 74 | 107 | 0.0 | 1.7 | 0.00 | 0.00 | 0.00 | 84 | 1007.4 |
| 20260509012312 | 75 | 124 | 0.0 | 0.9 | 0.00 | 0.00 | 0.00 | 84 | 1007.7 |
| 20260509011809 | 75 | 133 | 1.7 | 1.7 | 0.00 | 0.00 | 0.00 | 83 | 1007.7 |
| 20260509011306 | 75 | 25 | 0.0 | 1.7 | 0.00 | 0.00 | 0.00 | 83 | 1007.7 |
| 20260509010804 | 75 | 124 | 0.9 | 1.7 | 0.00 | 0.00 | 0.00 | 83 | 1007.7 |
| 20260509010300 | 75 | 142 | 0.0 | 0.9 | 0.00 | 0.00 | 0.00 | 83 | 1007.7 |
| 20260509005758 | 75 | 150 | 0.9 | 0.9 | 0.00 | 0.00 | 0.00 | 82 | 1007.8 |
| 20260509005256 | 75 | 134 | 0.0 | 1.7 | 0.00 | 0.00 | 0.00 | 82 | 1007.6 |
| 20260509004755 | 75 | 142 | 0.0 | 0.9 | 0.00 | 0.00 | 0.00 | 82 | 1007.7 |
| 20260509004252 | 75 | 112 | 0.0 | 1.7 | 0.00 | 0.00 | 0.00 | 82 | 1007.7 |
| 20260509003750 | 75 | 107 | 0.9 | 1.7 | 0.00 | 0.00 | 0.00 | 82 | 1007.6 |
| 20260509003248 | 75 | 124 | 0.0 | 1.7 | 0.00 | 0.00 | 0.00 | 82 | 1007.6 |
| 20260509002745 | 75 | 129 | 0.0 | 0.9 | 0.00 | 0.00 | 0.00 | 82 | 1007.7 |
| 20260509002242 | 75 | 118 | 0.0 | 0.9 | 0.00 | 0.00 | 0.00 | 82 | 1007.7 |
| 20260509001740 | 75 | 66 | 0.0 | 0.0 | 0.00 | 0.00 | 0.00 | 82 | 1007.7 |
| 20260509001235 | 75 | 120 | 1.7 | 1.7 | 0.00 | 0.00 | 0.00 | 82 | 1007.5 |
| 20260509000734 | 75 | 89 | 0.0 | 0.0 | 0.00 | 0.00 | 0.00 | 82 | 1007.9 |
| 20260509000231 | 75 | 104 | 0.0 | 0.9 | 0.00 | 0.00 | 0.00 | 81 | 1007.7 |
| 20260508235727 | 75 | 269 | 0.0 | 0.9 | 0.00 | 0.00 | 0.00 | 81 | 1007.8 |
| 20260508235224 | 76 | 44 | 0.0 | 0.9 | 0.00 | 0.00 | 0.00 | 81 | 1007.6 |
| 20260508234722 | 76 | 142 | 0.0 | 0.9 | 0.00 | 0.00 | 0.00 | 81 | 1007.9 |
| 20260508234218 | 76 | 17 | 0.0 | 0.9 | 0.00 | 0.00 | 0.00 | 80 | 1008.1 |
| 20260508233717 | 76 | 50 | 0.0 | 0.9 | 0.00 | 0.00 | 0.00 | 80 | 1007.6 |
| 20260508233215 | 76 | 299 | 0.0 | 0.9 | 0.00 | 0.00 | 0.00 | 80 | 1007.6 |
| 20260508232712 | 76 | 37 | 0.9 | 0.9 | 0.00 | 0.00 | 0.00 | 80 | 1007.7 |
| 20260508232208 | 76 | 124 | 0.0 | 0.0 | 0.00 | 0.00 | 0.00 | 79 | 1007.9 |
| 20260508231707 | 77 | 135 | 0.0 | 0.9 | 0.00 | 0.00 | 0.00 | 80 | 1007.6 |
| 20260508231203 | 77 | 117 | 0.0 | 1.7 | 0.00 | 0.00 | 0.00 | 79 | 1007.7 |
| 20260508230700 | 77 | 117 | 0.0 | 1.7 | 0.00 | 0.00 | 0.00 | 79 | 1007.6 |
| 20260508230156 | 77 | 106 | 0.0 | 1.7 | 0.00 | 0.00 | 0.00 | 79 | 1007.9 |
| 20260508225654 | 77 | 89 | 0.0 | 0.9 | 0.00 | 0.00 | 0.00 | 79 | 1007.6 |
| 20260508225150 | 77 | 62 | 0.0 | 0.9 | 0.00 | 0.00 | 0.00 | 79 | 1007.9 |
| 20260508224648 | 76 | 142 | 0.0 | 0.9 | 0.00 | 0.00 | 0.00 | 78 | 1007.8 |